Nasa Shuttle Landing Facility Airport
KTTS : now visible

Airfield :











YOU CAN JOIN US ON...

 
LOGIN :

Register | Disclaimer

   EN    FR    IT 

 









Legend :    VFR   Marginal VFR   IFR   Intensive IFR   Very Intensive IFR
Visi :
Ceiling :
>= 8 km
>= 3000ft
5 to 8 km
1000 to 3000 ft
1500m to 5 km
500 to 1000 ft
800 to 1500m
200 to 500 ft
< 800m
< 200 ft
Symbols :   Thunderstorms  Fog  Heavy snow  Heavy precipitations  Wind > 20 kt







- Airport Elevation : 10 ft


KTTS - Nasa Shuttle Landing Facility

CURRENT METAR :
  • 210756Z AUTO 00000KT 10SM SCT024 21/20 A2995 RMK AO2 SLP146 T02100196 $

EXPIRED METARs :
  • 210656Z AUTO 00000KT 10SM CLR 22/20 A2995 RMK AO2 SLP146 T02210202 $
  • 210556Z AUTO 16003KT 10SM CLR 23/21 A2996 RMK AO2 SLP150 T02320211 10260 20231 58011 $

Expired Forecast.
KZMA FIR / North America



MET'MAP, your aeronautical weather chart ! - Copyright ORBIFLY December 2007 - Disclaimer

ORBIFLY MET'MAP TEAM :

Programming & Development : Alexandra Zaïnal
Concept & Development : Baudouin d'Aumeries
Co-Development & Prog : Marc-Olivier Méhu
Technical & hardware support : Manuel Goepfert

Contact : metmap@orbifly.com




SOURCES & CREDITS :

   NOAA       Earth
Advisory